Mc Crory, Arkansas
Current Conditions -  °F | °C
As of 3:56 AM on Saturday 25 Oct 2014 (Local Time) from KM19 Reporting Station
Clear Clear  
Wind Chill: 55°   Ceiling: Unl
Heat Index: 55°   Visibility: 9mi
Dew Point: 54°   Wind: 6mph
Humidity: 97%   Direction: 200°SSW
Pressure: 30.08"   Gusts: NA
Location:  35.2562°N, 91.1949°W
Report Text: KM19 250856Z AUTO 20005KT 9SM CLR 13/12 A3008 RMK AO2 55003 T01270122 SLP182
Loading
Personal Weather Stations






























Interactive Weather Map
Tropical Storm Tracking
New forecast layout! Learn more

10-Day Weather Forecast

Advertisements
Track Severe Weather on mobile